This is the latest recevied weather packets stored in our database for station/object G1YBJ-13. If no packets are shown the sender has not sent any weather packets the latest 10 day(s).
| Time | Temp. | Humidity | Pressure | Rain* | Wind** | Luminosity | Snow |
|---|---|---|---|---|---|---|---|
| 1777325102 | 11.11° C | 77% | 1025 hPa | - | - | - | - |
| 1777324200 | 11.67° C | 79% | 1025.1 hPa | - | - | - | - |
| 1777323299 | 11.67° C | 76% | 1025.1 hPa | - | - | - | - |
| 1777322377 | 12.22° C | 80% | 1025.1 hPa | - | - | - | - |
| 1777321473 | 12.22° C | 79% | 1025.1 hPa | - | - | - | - |
| 1777320546 | 12.22° C | 77% | 1025.1 hPa | - | - | - | - |
| 1777319644 | 12.22° C | 78% | 1025.1 hPa | - | - | - | - |
| 1777318742 | 12.78° C | 76% | 1025 hPa | - | - | - | - |
| 1777317840 | 13.89° C | 72% | 1024.8 hPa | - | - | - | - |
| 1777316938 | 14.44° C | 69% | 1024.6 hPa | - | - | - | - |
| 1777316037 | 14.44° C | 67% | 1024.4 hPa | - | - | - | - |
| 1777315136 | 15° C | 68% | 1024.3 hPa | - | - | - | - |
| 1777314235 | 15° C | 67% | 1024.2 hPa | - | - | - | - |
| 1777313335 | 15° C | 66% | 1023.9 hPa | - | - | - | - |
| 1777312433 | 15.56° C | 65% | 1023.7 hPa | - | - | - | - |
| 1777311532 | 16.11° C | 65% | 1023.5 hPa | - | - | - | - |
| 1777310630 | 16.11° C | 63% | 1023.7 hPa | - | - | - | - |
| 1777309729 | 17.78° C | 62% | 1023.5 hPa | - | - | - | - |
| 1777308828 | 20° C | 53% | 1023 hPa | - | - | - | - |
| 1777307928 | 20° C | 53% | 1023 hPa | - | - | - | - |
| 1777307027 | 22.22° C | 50% | 1023 hPa | - | - | - | - |
| 1777306125 | 23.33° C | 49% | 1023 hPa | - | - | - | - |
| 1777305223 | 21.11° C | 53% | 1023 hPa | - | - | - | - |
| 1777304322 | 20° C | 54% | 1023.1 hPa | - | - | - | - |
| 1777303420 | 20° C | 53% | 1023.2 hPa | - | - | - | - |
* Rain since midnight (hover to see other rain measurements)
** Current wind speed in m/s (hover to see current wind gust speed)